9CL2 weather

Christensen Ranch Airport
Hollister, California, United States

Public forecast

Using degrees Fahrenheit for public forecast. Weather courtesy of forecast.io.

Closest aviation weather report (METAR) to Christensen Ranch Airport

Closest report is San Martin Airport, 17.7 nm (32.8 km) NW. Retrieved UTC (0 seconds ago):

Closest aviation forecast (TAF) to Christensen Ranch Airport

Closest forecast is Salinas Municipal Airport, 18.0 nm (33.4 km) SW. Retrieved 2019-10-22 00:34 UTC (4 hours ago):

TAF KSNS 212332Z 2200/2224 29011KT P6SM SKC FM220400 VRB03KT P6SM SKC FM220800 11004KT P6SM SKC FM221900 VRB03KT P6SM SKC FM222200 29010KT P6SM SKC